Oak Bay, Washington
Current Conditions -  °F | °C
As of 9:56 AM on Friday 24 Oct 2014 (Local Time) from KNUW Reporting Station
Broken Clouds Broken Clouds  
Wind Chill: 54°   Ceiling: 25000
Heat Index: 54°   Visibility: 10mi
Dew Point: 44°   Wind: 6mph
Humidity: 69%   Direction: 110°ESE
Pressure: 30.06"   Gusts: NA
Location:  48.0288°N, 122.77°W
Report Text: KNUW 241656Z 11005KT 10SM FEW013 SCT035 SCT100 BKN250 12/07 A3006 RMK AO2 SLP182 T01220067 $
Loading
Personal Weather Stations






























Interactive Weather Map
Tropical Storm Tracking
New forecast layout! Learn more

10-Day Weather Forecast

Advertisements
Track Severe Weather on mobile